Time;durP1;ratioP1;P1;durP2;ratioP2;P2;SDS_P1;SDS_P2;PMS_P1;PMS_P2;Temp;Humidity;BMP_temperature;BMP_pressure;BME280_temperature;BME280_humidity;BME280_pressure;Samples;Min_cycle;Max_cycle;Signal;HPM_P1;HPM_P2
2022/04/27 00:01:51;;;;;;;;;;;;;;;11.20;100.00;100495.13;5051779;28;19912;-62
2022/04/27 00:04:16;;;;;;;;;;;;;;;11.13;100.00;100489.09;5048981;28;19909;-62
2022/04/27 00:06:45;;;;;;;;;;;;;;;11.15;100.00;100486.41;5050300;28;19981;-62
2022/04/27 00:09:11;;;;;;;;;;;;;;;11.13;100.00;100493.53;5052148;28;19912;-62
2022/04/27 00:11:37;;;;;;;;;;;;;;;11.14;100.00;100498.81;5051712;28;20397;-62
2022/04/27 00:14:03;;;;;;;;;;;;;;;11.19;100.00;100496.03;5051938;28;19947;-62
2022/04/27 00:16:28;;;;;;;;;;;;;;;11.22;100.00;100496.81;5051703;28;20006;-62
2022/04/27 00:18:54;;;;;;;;;;;;;;;11.19;100.00;100506.69;5051811;28;19920;-62
2022/04/27 00:21:19;;;;;;;;;;;;;;;11.13;100.00;100504.19;5051267;28;19924;-62
2022/04/27 00:23:44;;;;;;;;;;;;;;;11.12;100.00;100497.97;5051717;28;19999;-62
2022/04/27 00:26:10;;;;;;;;;;;;;;;11.19;100.00;100509.34;5051469;28;19908;-62
2022/04/27 00:28:35;;;;;;;;;;;;;;;11.24;100.00;100507.44;5040434;28;19963;-62
2022/04/27 00:31:00;;;;;;;;;;;;;;;11.28;100.00;100509.09;5030411;28;19974;-62
2022/04/27 00:33:26;;;;;;;;;;;;;;;11.32;100.00;100494.75;5031925;28;19909;-62
2022/04/27 00:35:52;;;;;;;;;;;;;;;11.32;100.00;100495.66;5037665;28;19913;-62
2022/04/27 00:38:18;;;;;;;;;;;;;;;11.27;100.00;100494.91;5051447;28;20461;-62
2022/04/27 00:40:44;;;;;;;;;;;;;;;11.24;100.00;100496.78;5051204;28;20012;-62
2022/04/27 00:43:09;;;;;;;;;;;;;;;11.19;100.00;100498.69;5051256;28;19916;-62
2022/04/27 00:45:34;;;;;;;;;;;;;;;11.18;100.00;100492.50;5047973;28;19909;-62
2022/04/27 00:48:00;;;;;;;;;;;;;;;11.19;100.00;100494.25;5051332;28;19912;-62
2022/04/27 00:50:25;;;;;;;;;;;;;;;11.21;100.00;100494.19;5051265;28;19953;-62
2022/04/27 00:52:51;;;;;;;;;;;;;;;11.21;100.00;100502.19;5051124;28;20011;-62
2022/04/27 00:55:16;;;;;;;;;;;;;;;11.23;100.00;100497.69;5050477;28;20660;-62
2022/04/27 00:57:46;;;;;;;;;;;;;;;11.22;100.00;100493.31;5050647;28;20286;-62
2022/04/27 01:00:12;;;;;;;;;;;;;;;11.25;100.00;100499.38;5051218;28;19974;-62
2022/04/27 01:02:37;;;;;;;;;;;;;;;11.24;100.00;100499.44;5051046;28;20294;-62
2022/04/27 01:05:07;;;;;;;;;;;;;;;11.24;100.00;100508.31;5051173;28;19955;-62
2022/04/27 01:07:33;;;;;;;;;;;;;;;11.24;100.00;100504.75;5031311;28;19963;-62
2022/04/27 01:09:58;;;;;;;;;;;;;;;11.24;100.00;100502.09;5031236;28;19917;-62
2022/04/27 01:12:24;;;;;;;;;;;;;;;11.26;100.00;100505.59;5030943;28;19992;-62
2022/04/27 01:14:49;;;;;;;;;;;;;;;11.26;100.00;100510.94;5031161;28;19960;-62
2022/04/27 01:17:15;;;;;;;;;;;;;;;11.25;100.00;100520.69;5040436;28;20379;-62
2022/04/27 01:19:40;;;;;;;;;;;;;;;11.25;100.00;100525.16;5050787;28;19936;-62
2022/04/27 01:22:06;;;;;;;;;;;;;;;11.29;100.00;100527.69;5049740;28;19924;-62
2022/04/27 01:24:31;;;;;;;;;;;;;;;11.28;100.00;100517.97;5050486;28;19935;-62
2022/04/27 01:26:57;;;;;;;;;;;;;;;11.22;100.00;100520.78;5050083;28;19913;-62
2022/04/27 01:29:25;;;;;;;;;;;;;;;11.26;100.00;100524.25;5050385;28;19923;-62
2022/04/27 01:31:51;;;;;;;;;;;;;;;11.25;100.00;100528.69;5050494;28;19915;-62
2022/04/27 01:34:16;;;;;;;;;;;;;;;11.29;100.00;100526.81;5050556;28;20321;-62
2022/04/27 01:36:42;;;;;;;;;;;;;;;11.29;100.00;100526.81;5050732;28;19912;-62
2022/04/27 01:39:07;;;;;;;;;;;;;;;11.28;100.00;100522.41;5050840;28;19908;-62
2022/04/27 01:41:33;;;;;;;;;;;;;;;11.28;100.00;100525.97;5050749;28;19928;-62
2022/04/27 01:43:58;;;;;;;;;;;;;;;11.28;100.00;100520.63;5050658;28;19962;-62
2022/04/27 01:46:24;;;;;;;;;;;;;;;11.25;100.00;100520.69;5041009;28;19913;-62
2022/04/27 01:48:52;;;;;;;;;;;;;;;11.27;100.00;100521.53;5030544;28;19909;-62
2022/04/27 01:51:18;;;;;;;;;;;;;;;11.28;100.00;100520.63;5031609;28;19955;-62
2022/04/27 01:56:27;;;;;;;;;;;;;;;11.28;100.00;100514.44;5034424;28;20300;-62
2022/04/27 01:58:54;;;;;;;;;;;;;;;11.25;100.00;100519.84;5036132;28;19917;-62
2022/04/27 02:01:21;;;;;;;;;;;;;;;11.26;100.00;100518.91;5034114;28;19912;-62
2022/04/27 02:03:47;;;;;;;;;;;;;;;11.31;100.00;100530.31;5041922;28;19916;-62
2022/04/27 02:06:13;;;;;;;;;;;;;;;11.34;100.00;100524.91;5054266;28;19912;-62
2022/04/27 02:08:38;;;;;;;;;;;;;;;11.34;100.00;100532.88;5054043;28;21701;-62
2022/04/27 02:11:04;;;;;;;;;;;;;;;11.39;100.00;100528.31;5054062;28;19908;-62
2022/04/27 02:13:29;;;;;;;;;;;;;;;11.37;100.00;100524.81;5054194;28;20680;-62
2022/04/27 02:15:54;;;;;;;;;;;;;;;11.32;100.00;100526.72;5054045;28;19908;-62
2022/04/27 02:18:20;;;;;;;;;;;;;;;11.35;100.00;100521.34;5049014;28;19917;-62
2022/04/27 02:20:45;;;;;;;;;;;;;;;11.24;100.00;100518.97;5054110;28;19978;-62
2022/04/27 02:23:11;;;;;;;;;;;;;;;11.26;100.00;100522.47;5053979;28;20090;-62
2022/04/27 02:25:36;;;;;;;;;;;;;;;11.24;100.00;100508.31;5054123;28;19919;-62
2022/04/27 02:28:01;;;;;;;;;;;;;;;11.24;100.00;100518.06;5053721;28;20264;-62
2022/04/27 02:30:27;;;;;;;;;;;;;;;11.20;100.00;100505.78;5053203;28;20289;-62
2022/04/27 02:32:52;;;;;;;;;;;;;;;11.18;100.00;100507.59;5052114;28;20372;-62
2022/04/27 02:35:18;;;;;;;;;;;;;;;11.02;100.00;100511.59;5051323;28;19943;-62
2022/04/27 02:37:43;;;;;;;;;;;;;;;10.85;100.00;100512.03;5053695;28;19909;-62
2022/04/27 02:40:09;;;;;;;;;;;;;;;10.78;100.00;100513.09;5053491;28;19916;-62
2022/04/27 02:42:34;;;;;;;;;;;;;;;10.67;100.00;100520.50;5053477;28;19913;-62
2022/04/27 02:45:00;;;;;;;;;;;;;;;10.67;100.00;100527.59;5053402;28;19912;-62
2022/04/27 02:47:25;;;;;;;;;;;;;;;10.63;100.00;100530.31;5050145;28;19921;-62
2022/04/27 02:52:34;;;;;;;;;;;;;;;10.67;100.00;100532.91;5053706;28;19916;-62
2022/04/27 02:55:00;;;;;;;;;;;;;;;10.67;100.00;100535.56;5053504;28;20287;-62
2022/04/27 02:57:25;;;;;;;;;;;;;;;10.59;100.00;100533.97;5053310;28;19913;-62
2022/04/27 02:59:50;;;;;;;;;;;;;;;10.55;100.00;100537.63;5053143;28;20031;-62
2022/04/27 03:02:16;;;;;;;;;;;;;;;10.53;100.00;100541.22;5051929;28;20028;-62
2022/04/27 03:04:41;;;;;;;;;;;;;;;10.55;100.00;100542.94;5051318;28;20323;-62
2022/04/27 03:07:07;;;;;;;;;;;;;;;10.53;100.00;100544.75;5050591;28;19908;-62
2022/04/27 03:09:32;;;;;;;;;;;;;;;10.54;100.00;100541.19;5052268;28;19909;-62
2022/04/27 03:11:59;;;;;;;;;;;;;;;10.62;100.00;100549.84;5053284;28;19955;-62
2022/04/27 03:14:25;;;;;;;;;;;;;;;10.61;100.00;100542.78;5052965;28;19995;-62
2022/04/27 03:16:52;;;;;;;;;;;;;;;10.59;100.00;100549.06;5046956;28;19909;-62
2022/04/27 03:19:17;;;;;;;;;;;;;;;10.61;100.00;100545.44;5033192;28;19920;-62
2022/04/27 03:21:43;;;;;;;;;;;;;;;10.63;100.00;100543.63;5032842;28;20392;-62
2022/04/27 03:24:08;;;;;;;;;;;;;;;10.67;100.00;100540.88;5041039;28;19962;-62
2022/04/27 03:26:33;;;;;;;;;;;;;;;10.69;100.00;100549.72;5052706;28;19909;-62
2022/04/27 03:28:59;;;;;;;;;;;;;;;10.67;100.00;100546.22;5052457;28;20311;-62
2022/04/27 03:31:25;;;;;;;;;;;;;;;10.69;100.00;100555.03;5052336;28;19913;-62
2022/04/27 03:33:50;;;;;;;;;;;;;;;10.68;100.00;100559.47;5052960;28;20054;-62
2022/04/27 03:36:15;;;;;;;;;;;;;;;10.72;100.00;100554.94;5042614;28;19909;-62
2022/04/27 03:38:42;;;;;;;;;;;;;;;10.78;100.00;100557.44;5032779;28;19913;-62
2022/04/27 03:41:08;;;;;;;;;;;;;;;10.79;100.00;100562.72;5045619;28;20047;-62
2022/04/27 03:43:33;;;;;;;;;;;;;;;10.83;100.00;100560.88;5052571;28;20351;-62
2022/04/27 03:45:59;;;;;;;;;;;;;;;10.89;100.00;100560.75;5052144;28;19919;-62
2022/04/27 03:48:24;;;;;;;;;;;;;;;10.90;100.00;100563.38;5052518;28;19935;-62
2022/04/27 03:50:49;;;;;;;;;;;;;;;10.93;100.00;100565.94;5050495;28;20399;-62
2022/04/27 03:53:14;;;;;;;;;;;;;;;10.96;100.00;100570.28;5049262;28;19963;-62
2022/04/27 03:55:40;;;;;;;;;;;;;;;10.94;100.00;100572.16;5051439;28;19909;-62
2022/04/27 03:58:05;;;;;;;;;;;;;;;10.95;100.00;100571.22;5051547;28;19908;-62
2022/04/27 04:00:31;;;;;;;;;;;;;;;10.98;100.00;100573.81;5051102;28;19964;-62
2022/04/27 04:03:03;;;;;;;;;;;;;;;10.96;100.00;100565.84;5051405;28;19909;-62
2022/04/27 04:05:29;;;;;;;;;;;;;;;11.01;100.00;100571.06;5052101;28;20356;-62
2022/04/27 04:07:54;;;;;;;;;;;;;;;11.01;100.00;100568.41;5052055;28;19947;-62
2022/04/27 04:10:20;;;;;;;;;;;;;;;11.00;100.00;100569.31;5051964;28;19913;-62
2022/04/27 04:12:45;;;;;;;;;;;;;;;11.01;100.00;100571.94;5051281;28;20312;-62
2022/04/27 04:15:11;;;;;;;;;;;;;;;10.99;100.00;100580.88;5051215;28;19908;-62
2022/04/27 04:17:36;;;;;;;;;;;;;;;11.05;100.00;100578.06;5051714;28;19912;-62
2022/04/27 04:20:03;;;;;;;;;;;;;;;11.10;100.00;100581.47;5051892;28;20003;-62
2022/04/27 04:22:28;;;;;;;;;;;;;;;11.14;100.00;100591.13;5051655;28;19921;-62
2022/04/27 04:30:21;;;;;;;;;;;;;;;11.11;100.00;100592.09;5044022;28;20019;-62
2022/04/27 04:32:46;;;;;;;;;;;;;;;11.11;100.00;100596.53;5031795;28;20001;-62
2022/04/27 04:35:13;;;;;;;;;;;;;;;11.10;100.00;100606.31;5032625;28;19913;-62
2022/04/27 04:37:38;;;;;;;;;;;;;;;11.05;100.00;100607.34;5051204;28;19924;-62
2022/04/27 04:40:04;;;;;;;;;;;;;;;11.02;100.00;100605.63;5051449;28;19909;-62
2022/04/27 04:42:29;;;;;;;;;;;;;;;11.03;100.00;100611.81;5050431;28;19913;-62
2022/04/27 04:44:54;;;;;;;;;;;;;;;10.98;100.00;100616.38;5050871;28;19958;-62
2022/04/27 04:47:21;;;;;;;;;;;;;;;10.89;100.00;100613.97;5050268;28;19912;-62
2022/04/27 04:49:46;;;;;;;;;;;;;;;10.92;100.00;100613.88;5050654;28;19999;-62
2022/04/27 04:52:11;;;;;;;;;;;;;;;10.97;100.00;100623.50;5047950;28;20348;-62
2022/04/27 04:54:37;;;;;;;;;;;;;;;10.98;100.00;100627.91;5051460;28;19913;-62
2022/04/27 04:57:02;;;;;;;;;;;;;;;10.97;100.00;100615.50;5050065;28;19924;-62
2022/04/27 04:59:28;;;;;;;;;;;;;;;10.96;100.00;100616.44;5040117;28;20386;-62
2022/04/27 05:01:53;;;;;;;;;;;;;;;10.96;100.00;100620.88;5044774;28;20018;-62
2022/04/27 05:04:18;;;;;;;;;;;;;;;10.95;100.00;100614.69;5051024;28;19909;-62
2022/04/27 05:06:44;;;;;;;;;;;;;;;10.96;100.00;100615.53;5050609;28;19915;-62
2022/04/27 05:09:09;;;;;;;;;;;;;;;11.02;100.00;100612.75;5047109;28;20402;-62
2022/04/27 05:11:35;;;;;;;;;;;;;;;11.04;100.00;100618.88;5044212;28;19924;-62
2022/04/27 05:14:00;;;;;;;;;;;;;;;11.05;100.00;100628.63;5049122;28;19921;-62
2022/04/27 05:16:26;;;;;;;;;;;;;;;11.14;100.00;100628.41;5046220;28;20012;-62
2022/04/27 05:18:51;;;;;;;;;;;;;;;11.12;100.00;100630.25;5028879;28;19920;-62
2022/04/27 05:21:16;;;;;;;;;;;;;;;11.08;100.00;100629.44;5027834;28;19981;-62
2022/04/27 05:23:42;;;;;;;;;;;;;;;11.12;100.00;100631.09;5029062;28;20265;-62
2022/04/27 05:26:08;;;;;;;;;;;;;;;11.12;100.00;100635.56;5030471;28;19912;-62
2022/04/27 05:31:54;;;;;;;;;;;;;;;11.09;100.00;100636.50;5033804;28;19917;-62
2022/04/27 05:34:02;;;;;;;;;;;;;;;11.10;100.00;100640.94;5033530;28;20059;-62
2022/04/27 05:36:27;;;;;;;;;;;;;;;11.11;100.00;100644.44;5033034;28;19996;-62
2022/04/27 05:38:53;;;;;;;;;;;;;;;11.15;100.00;100646.13;5032845;28;19920;-62
2022/04/27 05:41:18;;;;;;;;;;;;;;;11.19;100.00;100647.78;5031755;28;19927;-62
2022/04/27 05:43:43;;;;;;;;;;;;;;;11.21;100.00;100648.63;5033100;28;19949;-62
2022/04/27 05:46:08;;;;;;;;;;;;;;;11.24;100.00;100653.88;5033645;28;19917;-62
2022/04/27 05:48:34;;;;;;;;;;;;;;;11.19;100.00;100656.66;5033040;28;19963;-62
2022/04/27 05:51:01;;;;;;;;;;;;;;;11.19;100.00;100659.34;5031954;28;19982;-62
2022/04/27 05:53:27;;;;;;;;;;;;;;;11.22;100.00;100663.72;5033565;28;20017;-62
2022/04/27 05:55:52;;;;;;;;;;;;;;;11.24;100.00;100662.75;5032088;28;19913;-62
2022/04/27 05:58:18;;;;;;;;;;;;;;;11.26;100.00;100662.72;5033271;28;19913;-62
2022/04/27 06:00:46;;;;;;;;;;;;;;;11.33;100.00;100677.63;5029375;28;19924;-62
2022/04/27 06:03:11;;;;;;;;;;;;;;;11.38;100.00;100676.59;5011767;28;19936;-62
2022/04/27 06:05:36;;;;;;;;;;;;;;;11.41;100.00;100680.97;5015849;28;19963;-62
2022/04/27 06:08:01;;;;;;;;;;;;;;;11.40;100.00;100677.44;5030957;28;20284;-62
2022/04/27 06:10:27;;;;;;;;;;;;;;;11.41;100.00;100680.97;5028040;28;20397;-62
2022/04/27 06:12:53;;;;;;;;;;;;;;;11.44;100.00;100681.78;5029811;28;20345;-62
2022/04/27 06:15:18;;;;;;;;;;;;;;;11.50;100.00;100686.06;5033280;28;19995;-62
2022/04/27 06:17:43;;;;;;;;;;;;;;;11.55;100.00;100687.69;5033664;28;20335;-62
2022/04/27 06:20:09;;;;;;;;;;;;;;;11.60;100.00;100688.44;5034893;28;19913;-62
2022/04/27 06:22:35;;;;;;;;;;;;;;;11.66;100.00;100687.47;5049193;28;19923;-62
2022/04/27 06:25:00;;;;;;;;;;;;;;;11.68;100.00;100691.81;5054904;28;19987;-62
2022/04/27 06:27:25;;;;;;;;;;;;;;;11.78;100.00;100689.78;5052621;28;19913;-62
2022/04/27 06:29:51;;;;;;;;;;;;;;;11.84;100.00;100693.16;5053602;28;19947;-62
2022/04/27 06:32:16;;;;;;;;;;;;;;;11.80;100.00;100696.84;5053155;28;19955;-62
2022/04/27 06:34:41;;;;;;;;;;;;;;;11.87;100.00;100692.22;5053667;28;20261;-62
2022/04/27 06:37:06;;;;;;;;;;;;;;;11.90;100.00;100692.13;5053667;28;19999;-62
2022/04/27 06:39:32;;;;;;;;;;;;;;;11.93;100.00;100692.03;5051019;28;19909;-62
2022/04/27 06:41:57;;;;;;;;;;;;;;;12.03;100.00;100693.53;5052852;28;19999;-62
2022/04/27 06:44:22;;;;;;;;;;;;;;;12.15;100.00;100693.19;5053529;28;19909;-62
2022/04/27 06:46:48;;;;;;;;;;;;;;;12.22;100.00;100694.78;5052953;28;19927;-62
2022/04/27 06:49:13;;;;;;;;;;;;;;;12.34;100.00;100688.22;5054560;28;19916;-62
2022/04/27 06:51:38;;;;;;;;;;;;;;;12.40;100.00;100699.59;5050700;28;20327;-62
2022/04/27 06:54:04;;;;;;;;;;;;;;;12.51;100.00;100697.47;5053239;28;19931;-62
2022/04/27 06:56:29;;;;;;;;;;;;;;;12.52;100.00;100693.88;5053524;28;19920;-62
2022/04/27 06:58:55;;;;;;;;;;;;;;;12.64;100.00;100698.84;5054359;28;19915;-62
2022/04/27 07:01:21;;;;;;;;;;;;;;;12.77;100.00;100700.22;5053678;28;20364;-62
2022/04/27 07:03:46;;;;;;;;;;;;;;;12.91;100.00;100700.69;5053001;28;20394;-62
2022/04/27 07:06:12;;;;;;;;;;;;;;;13.04;100.00;100710.09;5052712;28;19939;-62
2022/04/27 07:08:37;;;;;;;;;;;;;;;13.05;100.00;100703.81;5053433;28;19908;-62
2022/04/27 07:11:03;;;;;;;;;;;;;;;13.11;100.00;100706.28;5054040;28;19909;-62
2022/04/27 07:13:29;;;;;;;;;;;;;;;13.08;100.00;100706.41;5052881;28;19944;-62
2022/04/27 07:16:00;;;;;;;;;;;;;;;13.17;100.00;100700.78;5053507;28;20015;-62
2022/04/27 07:18:25;;;;;;;;;;;;;;;13.26;100.00;100706.75;5052956;28;19912;-62
2022/04/27 07:20:50;;;;;;;;;;;;;;;13.23;100.00;100711.25;5052754;28;19956;-62
2022/04/27 07:23:16;;;;;;;;;;;;;;;13.28;100.00;100712.91;5052451;28;20335;-62
2022/04/27 07:25:41;;;;;;;;;;;;;;;13.33;99.18;100708.28;5053412;28;19974;-62
2022/04/27 07:28:06;;;;;;;;;;;;;;;13.51;100.00;100705.00;5053664;28;19909;-62
2022/04/27 07:30:32;;;;;;;;;;;;;;;13.56;98.92;100708.41;5053718;28;19913;-62
2022/04/27 07:32:57;;;;;;;;;;;;;;;13.56;96.60;100711.06;5052563;28;20003;-62
2022/04/27 07:35:22;;;;;;;;;;;;;;;13.66;95.99;100709.81;5053591;28;19916;-62
2022/04/27 07:37:47;;;;;;;;;;;;;;;14.04;96.51;100702.22;5053416;28;19908;-62
2022/04/27 07:40:13;;;;;;;;;;;;;;;14.47;96.04;100713.13;5053341;28;19909;-62
2022/04/27 07:42:39;;;;;;;;;;;;;;;14.77;93.59;100704.88;5051803;28;20419;-62
2022/04/27 07:45:05;;;;;;;;;;;;;;;14.99;86.75;100705.78;5053035;28;20006;-62
2022/04/27 07:47:43;;;;;;;;;;;;;;;15.19;84.53;100712.06;5051985;28;19952;-62
2022/04/27 07:50:10;;;;;;;;;;;;;;;15.30;83.29;100717.91;5051216;28;19973;-62
2022/04/27 07:52:35;;;;;;;;;;;;;;;15.82;83.83;100708.56;5053067;28;19908;-62
2022/04/27 07:55:00;;;;;;;;;;;;;;;15.89;80.51;100717.22;5053245;28;20068;-62
2022/04/27 07:57:30;;;;;;;;;;;;;;;15.99;79.75;100710.53;5049758;28;19966;-62
2022/04/27 07:59:55;;;;;;;;;;;;;;;16.30;78.50;100716.28;5031584;28;20415;-62
2022/04/27 08:02:21;;;;;;;;;;;;;;;17.14;76.51;100715.00;5040423;28;19913;-62
2022/04/27 08:04:46;;;;;;;;;;;;;;;17.92;70.61;100715.59;5050572;28;20000;-62
2022/04/27 08:07:11;;;;;;;;;;;;;;;18.90;67.96;100718.38;5049073;28;19919;-62
2022/04/27 08:09:36;;;;;;;;;;;;;;;18.88;64.90;100717.59;5053101;28;20372;-62
2022/04/27 08:12:02;;;;;;;;;;;;;;;19.00;67.23;100725.00;5051564;28;19916;-62
2022/04/27 08:14:27;;;;;;;;;;;;;;;18.46;65.97;100722.63;5052027;28;19955;-62
2022/04/27 08:16:53;;;;;;;;;;;;;;;18.51;63.09;100720.53;5046521;28;19963;-62
2022/04/27 08:19:20;;;;;;;;;;;;;;;18.53;65.05;100721.34;5032917;28;19971;-62
2022/04/27 08:21:45;;;;;;;;;;;;;;;18.84;64.33;100719.59;5031291;28;19924;-62
2022/04/27 08:24:11;;;;;;;;;;;;;;;19.16;64.59;100726.75;5032882;28;19908;-62
2022/04/27 08:26:36;;;;;;;;;;;;;;;19.49;63.65;100723.97;5033146;28;19909;-62
2022/04/27 08:29:02;;;;;;;;;;;;;;;19.92;59.54;100725.91;5033000;28;19967;-62
2022/04/27 08:31:27;;;;;;;;;;;;;;;19.97;62.71;100733.72;5032995;28;20385;-62
2022/04/27 08:33:53;;;;;;;;;;;;;;;20.16;60.61;100729.88;5033614;28;19959;-62
2022/04/27 08:36:18;;;;;;;;;;;;;;;20.55;60.48;100734.66;5041847;28;20407;-62
2022/04/27 08:38:43;;;;;;;;;;;;;;;21.13;58.82;100729.19;5050914;28;19920;-62
2022/04/27 08:41:08;;;;;;;;;;;;;;;21.57;58.31;100735.25;5050422;28;19924;-62
2022/04/27 08:43:36;;;;;;;;;;;;;;;22.06;51.80;100740.00;5050653;28;19909;-62
2022/04/27 08:46:03;;;;;;;;;;;;;;;21.63;51.53;100738.41;5050373;28;19986;-62
2022/04/27 08:48:28;;;;;;;;;;;;;;;21.57;53.57;100738.84;5049307;28;19916;-62
2022/04/27 08:50:54;;;;;;;;;;;;;;;20.81;53.60;100742.88;5050565;28;19908;-62
2022/04/27 08:53:20;;;;;;;;;;;;;;;20.59;56.10;100742.47;5052354;28;19916;-62
2022/04/27 08:55:45;;;;;;;;;;;;;;;20.12;55.11;100741.78;5052375;28;19909;-62
2022/04/27 08:58:11;;;;;;;;;;;;;;;20.03;54.39;100745.03;5051874;28;20338;-62
2022/04/27 09:00:37;;;;;;;;;;;;;;;19.22;57.38;100753.38;5048470;28;20297;-62
2022/04/27 09:03:21;;;;;;;;;;;;;;;19.08;61.29;100755.09;5052084;28;19908;-62
2022/04/27 09:06:05;;;;;;;;;;;;;;;18.92;60.78;100754.19;5050629;28;19908;-62
2022/04/27 09:08:38;;;;;;;;;;;;;;;18.84;64.29;100751.06;5050064;28;19958;-62
2022/04/27 09:11:10;;;;;;;;;;;;;;;18.74;61.72;100748.00;5050879;28;19972;-62
2022/04/27 09:13:35;;;;;;;;;;;;;;;18.51;61.53;100742.97;5049482;28;20272;-62
2022/04/27 09:16:01;;;;;;;;;;;;;;;18.52;62.28;100749.25;5048697;28;19912;-62
2022/04/27 09:21:10;;;;;;;;;;;;;;;18.81;62.16;100738.63;5048662;28;19949;-62
2022/04/27 09:23:40;;;;;;;;;;;;;;;19.64;63.46;100739.28;5031280;28;20390;-62
2022/04/27 09:26:15;;;;;;;;;;;;;;;19.96;59.25;100750.91;5049290;28;19944;-62
2022/04/27 09:28:45;;;;;;;;;;;;;;;20.06;56.78;100731.38;5049252;28;19920;-62
2022/04/27 09:31:10;;;;;;;;;;;;;;;19.72;57.17;100747.78;5050366;28;19909;-62
2022/04/27 09:33:36;;;;;;;;;;;;;;;19.38;57.33;100737.22;5050420;28;19915;-62
2022/04/27 09:36:17;;;;;;;;;;;;;;;19.03;59.41;100744.56;5051111;28;19948;-62
2022/04/27 09:38:43;;;;;;;;;;;;;;;18.72;59.97;100740.94;5051164;28;20368;-62
2022/04/27 09:41:08;;;;;;;;;;;;;;;18.55;60.04;100743.69;5051709;28;19913;-62
2022/04/27 09:43:46;;;;;;;;;;;;;;;18.96;60.65;100745.84;5051419;28;19913;-62
2022/04/27 09:46:29;;;;;;;;;;;;;;;20.07;56.85;100733.09;5051717;28;20022;-62
2022/04/27 09:49:14;;;;;;;;;;;;;;;20.81;50.34;100737.47;5051774;28;19994;-62
2022/04/27 09:51:47;;;;;;;;;;;;;;;21.59;48.69;100741.44;5044502;28;19913;-62
2022/04/27 09:54:16;;;;;;;;;;;;;;;22.03;46.63;100739.34;5031827;28;20327;-62
2022/04/27 09:56:43;;;;;;;;;;;;;;;22.40;47.92;100740.41;5031547;28;19915;-64
2022/04/27 09:59:10;;;;;;;;;;;;;;;21.88;47.87;100748.50;5031720;28;19932;-64
2022/04/27 10:01:36;;;;;;;;;;;;;;;21.39;46.26;100750.88;5030101;28;19916;-64
2022/04/27 10:04:05;;;;;;;;;;;;;;;21.19;46.31;100736.88;5029525;28;19913;-64
2022/04/27 10:06:31;;;;;;;;;;;;;;;21.18;47.43;100754.09;5032554;28;20399;-64
2022/04/27 10:09:00;;;;;;;;;;;;;;;20.96;46.37;100741.03;5030523;28;19916;-64
2022/04/27 10:11:26;;;;;;;;;;;;;;;20.14;48.22;100745.28;5047789;28;19955;-64
2022/04/27 10:13:52;;;;;;;;;;;;;;;19.53;51.34;100739.94;5051230;28;19962;-63
2022/04/27 10:16:17;;;;;;;;;;;;;;;19.53;50.90;100741.75;5050977;28;20372;-63
2022/04/27 10:18:43;;;;;;;;;;;;;;;19.77;53.92;100750.25;5034412;28;19909;-63
2022/04/27 10:21:10;;;;;;;;;;;;;;;19.85;50.84;100738.00;5034847;28;19916;-63
2022/04/27 10:23:42;;;;;;;;;;;;;;;20.84;49.09;100731.00;5035151;28;19917;-64
2022/04/27 10:26:08;;;;;;;;;;;;;;;21.96;47.20;100727.19;5035088;28;19909;-64
2022/04/27 10:28:38;;;;;;;;;;;;;;;22.61;45.30;100730.78;5035436;28;20005;-64
2022/04/27 10:31:04;;;;;;;;;;;;;;;22.98;45.89;100725.31;5032980;28;20288;-64
2022/04/27 10:33:39;;;;;;;;;;;;;;;23.06;46.32;100733.78;5032229;28;19909;-64
2022/04/27 10:36:43;;;;;;;;;;;;;;;22.82;45.88;100732.84;5041888;28;19930;-64
2022/04/27 10:39:09;;;;;;;;;;;;;;;21.47;45.56;100731.41;5011093;28;19960;-64
2022/04/27 10:41:34;;;;;;;;;;;;;;;20.66;48.29;100722.22;5011778;28;19918;-64
2022/04/27 10:43:59;;;;;;;;;;;;;;;20.55;48.51;100729.25;5032158;28;19916;-64
2022/04/27 10:46:34;;;;;;;;;;;;;;;20.37;48.30;100728.56;5054585;28;19909;-64
2022/04/27 10:48:59;;;;;;;;;;;;;;;20.40;50.58;100725.66;5054727;28;19908;-64
2022/04/27 10:51:25;;;;;;;;;;;;;;;20.51;52.64;100725.03;5054564;28;19908;-64
2022/04/27 10:53:50;;;;;;;;;;;;;;;20.62;48.30;100723.38;5054380;28;20391;-64
2022/04/27 10:56:25;;;;;;;;;;;;;;;20.53;51.09;100718.53;5054537;28;19916;-64
2022/04/27 10:58:51;;;;;;;;;;;;;;;21.32;48.53;100722.47;5054831;28;19931;-64
2022/04/27 11:01:20;;;;;;;;;;;;;;;21.36;47.50;100728.56;5054229;28;19909;-64
2022/04/27 11:04:15;;;;;;;;;;;;;;;21.44;51.38;100726.19;5053950;28;19920;-64
2022/04/27 11:07:00;;;;;;;;;;;;;;;21.46;46.93;100724.28;5018865;28;19931;-64
2022/04/27 11:09:34;;;;;;;;;;;;;;;21.20;50.43;100733.22;5020238;28;20272;-64
2022/04/27 11:11:59;;;;;;;;;;;;;;;21.05;48.12;100734.22;5034288;28;19972;-64
2022/04/27 11:14:34;;;;;;;;;;;;;;;21.21;49.84;100729.53;5034110;28;19994;-64
2022/04/27 11:17:00;;;;;;;;;;;;;;;21.93;45.74;100722.84;5041444;28;20322;-65
2022/04/27 11:19:38;;;;;;;;;;;;;;;22.42;50.17;100717.59;5053672;28;20003;-63
2022/04/27 11:22:13;;;;;;;;;;;;;;;22.33;47.59;100718.28;5052263;28;20304;-64
2022/04/27 11:24:39;;;;;;;;;;;;;;;22.07;46.32;100724.63;5053811;28;19983;-64
2022/04/27 11:27:05;;;;;;;;;;;;;;;21.98;45.73;100727.94;5053721;28;19909;-64
2022/04/27 11:29:32;;;;;;;;;;;;;;;21.72;44.87;100728.81;5053913;28;19913;-64
2022/04/27 11:31:58;;;;;;;;;;;;;;;21.73;44.94;100723.28;5053853;28;19970;-64
2022/04/27 11:34:24;;;;;;;;;;;;;;;22.11;45.65;100718.00;5053470;28;20372;-64
2022/04/27 11:36:50;;;;;;;;;;;;;;;22.46;45.41;100727.28;5051882;28;20007;-64
2022/04/27 11:39:22;;;;;;;;;;;;;;;22.98;44.95;100722.63;5051776;28;19913;-64
2022/04/27 11:41:56;;;;;;;;;;;;;;;23.27;42.48;100724.13;5051865;28;19912;-64
2022/04/27 11:44:25;;;;;;;;;;;;;;;22.48;44.33;100727.16;5052289;28;20376;-64
2022/04/27 11:46:50;;;;;;;;;;;;;;;21.69;45.64;100726.31;5052102;28;20387;-64
2022/04/27 11:49:15;;;;;;;;;;;;;;;21.33;48.72;100718.81;5046910;28;19988;-64
2022/04/27 11:51:47;;;;;;;;;;;;;;;20.91;49.55;100722.41;5033286;28;19913;-64
2022/04/27 11:54:31;;;;;;;;;;;;;;;21.01;46.81;100721.84;5033296;28;19916;-64
2022/04/27 11:57:00;;;;;;;;;;;;;;;20.62;48.96;100719.81;5033271;28;20007;-64
2022/04/27 11:59:25;;;;;;;;;;;;;;;20.66;48.36;100716.81;5033737;28;19909;-63
2022/04/27 12:01:52;;;;;;;;;;;;;;;20.76;47.76;100717.97;5032474;28;19960;-63
2022/04/27 12:04:17;;;;;;;;;;;;;;;21.30;47.81;100718.13;5031909;28;19916;-63
2022/04/27 12:06:44;;;;;;;;;;;;;;;21.52;45.16;100724.72;5049871;28;20253;-63
2022/04/27 12:09:14;;;;;;;;;;;;;;;21.92;47.31;100718.44;5051711;28;19917;-63
2022/04/27 12:11:41;;;;;;;;;;;;;;;22.27;46.66;100715.13;5051491;28;19909;-63
2022/04/27 12:14:07;;;;;;;;;;;;;;;22.62;45.50;100713.56;5048753;28;19909;-63
2022/04/27 12:16:32;;;;;;;;;;;;;;;22.99;42.31;100724.38;5047287;28;19919;-64
2022/04/27 12:18:59;;;;;;;;;;;;;;;23.40;44.03;100713.22;5032691;28;19913;-64
2022/04/27 12:21:28;;;;;;;;;;;;;;;23.07;41.86;100712.94;5032148;28;20087;-64
2022/04/27 12:23:56;;;;;;;;;;;;;;;23.61;43.18;100706.16;5032307;28;20372;-64
2022/04/27 12:26:22;;;;;;;;;;;;;;;24.88;40.42;100707.06;5032908;28;20291;-64
2022/04/27 12:28:49;;;;;;;;;;;;;;;24.83;39.63;100703.88;5032906;28;19909;-64
2022/04/27 12:31:16;;;;;;;;;;;;;;;24.04;41.47;100706.50;5033617;28;19913;-64
2022/04/27 12:33:43;;;;;;;;;;;;;;;24.65;39.24;100700.72;5050275;28;19996;-64
2022/04/27 12:39:07;;;;;;;;;;;;;;;23.92;39.52;100710.16;5052985;28;19915;-64
2022/04/27 12:41:42;;;;;;;;;;;;;;;22.73;42.03;100713.66;5052290;28;19916;-64
2022/04/27 12:44:08;;;;;;;;;;;;;;;22.49;42.88;100702.66;5052648;28;19913;-64
2022/04/27 12:46:34;;;;;;;;;;;;;;;22.58;42.27;100703.88;5052028;28;19915;-64
2022/04/27 12:49:04;;;;;;;;;;;;;;;22.59;40.67;100706.50;5052560;28;19913;-64